createdAt,value
2023-03-02T04:57:47.074Z,12.40
2023-03-02T05:00:49.696Z,12.80
2023-03-02T05:03:53.057Z,13.62
2023-03-02T05:06:55.816Z,12.27
2023-03-02T05:09:57.916Z,13.38
2023-03-02T05:13:04.824Z,12.98
2023-03-02T05:16:07.179Z,12.73
2023-03-02T05:19:12.511Z,13.20
2023-03-02T05:22:14.684Z,12.52
2023-03-02T05:25:17.116Z,14.20
2023-03-02T05:28:20.690Z,13.55
2023-03-02T05:31:26.346Z,14.40
2023-03-02T05:34:28.792Z,14.77
2023-03-02T05:37:31.154Z,14.85
2023-03-02T05:40:33.718Z,15.55
2023-03-02T05:43:36.348Z,14.30
2023-03-02T05:46:38.558Z,15.88
2023-03-02T05:49:40.981Z,13.57
2023-03-02T05:52:43.081Z,14.70
2023-03-02T05:55:45.431Z,13.73
2023-03-02T05:58:47.553Z,13.48
2023-03-02T06:01:50.324Z,14.15
2023-03-02T06:04:52.693Z,14.30
2023-03-02T06:07:54.847Z,13.43
2023-03-02T06:10:57.761Z,15.43
2023-03-02T06:14:02.092Z,14.45
2023-03-02T06:17:04.729Z,14.48
2023-03-02T06:20:11.166Z,13.65
2023-03-02T06:23:14.018Z,14.13
2023-03-02T06:26:16.572Z,14.00
2023-03-02T06:29:18.993Z,13.65
2023-03-02T06:32:21.399Z,14.18
2023-03-02T06:35:24.351Z,15.30
2023-03-02T06:38:26.584Z,13.20
2023-03-02T06:41:28.984Z,14.13
2023-03-02T06:44:31.224Z,13.35
2023-03-02T06:47:33.978Z,13.40
2023-03-02T06:50:36.204Z,13.27
2023-03-02T06:53:38.600Z,10.50
2023-03-02T06:56:41.177Z,9.55
2023-03-02T06:59:43.641Z,8.95
2023-03-02T07:02:46.559Z,8.52
2023-03-02T07:05:49.996Z,8.25
2023-03-02T07:08:52.187Z,8.40
2023-03-02T07:11:54.583Z,7.87
2023-03-02T07:14:57.237Z,7.32
2023-03-02T07:17:59.667Z,7.87
2023-03-02T07:21:02.320Z,7.95
2023-03-02T07:24:05.133Z,8.55
2023-03-02T07:27:07.408Z,8.18
2023-03-02T07:30:10.723Z,9.35
2023-03-02T07:33:12.873Z,8.52
2023-03-02T07:36:15.808Z,9.50
2023-03-02T07:39:18.915Z,9.02
2023-03-02T07:42:21.325Z,8.57
2023-03-02T07:45:25.611Z,8.88
2023-03-02T07:48:28.017Z,9.73
2023-03-02T07:51:30.623Z,9.02
2023-03-02T07:54:33.195Z,9.25
2023-03-02T07:57:35.873Z,9.02
2023-03-02T08:00:41.260Z,9.10
2023-03-02T08:03:45.055Z,8.73
2023-03-02T08:06:47.199Z,8.95
2023-03-02T08:09:50.555Z,9.45
2023-03-02T08:12:52.752Z,9.02
2023-03-02T08:16:01.844Z,8.65
2023-03-02T08:19:04.192Z,9.23
2023-03-02T08:22:06.637Z,9.05
2023-03-02T08:25:08.949Z,9.18
2023-03-02T08:28:11.608Z,8.98
2023-03-02T08:31:14.506Z,9.07
2023-03-02T08:34:17.074Z,9.05
2023-03-02T08:37:19.493Z,9.10
2023-03-02T08:40:21.946Z,8.43
2023-03-02T08:43:25.435Z,9.65
2023-03-02T08:46:27.891Z,9.48
2023-03-02T08:49:30.883Z,9.30
2023-03-02T08:52:34.667Z,9.30
2023-03-02T08:55:37.881Z,8.90
2023-03-02T08:58:41.855Z,9.18
2023-03-02T09:01:44.116Z,10.38
2023-03-02T09:04:47.051Z,9.25
2023-03-02T09:07:50.126Z,9.45
2023-03-02T09:10:53.115Z,9.60
2023-03-02T09:13:56.269Z,10.02
2023-03-02T09:16:58.988Z,8.45
2023-03-02T09:20:01.163Z,9.70
2023-03-02T09:23:03.609Z,9.57
2023-03-02T09:26:06.066Z,8.98
2023-03-02T09:29:09.807Z,8.70
2023-03-02T09:32:13.510Z,8.70
2023-03-02T09:35:16.135Z,9.13
2023-03-02T09:38:19.060Z,8.10
2023-03-02T09:41:21.749Z,7.90
2023-03-02T09:45:15.060Z,7.62
2023-03-02T09:48:37.407Z,7.80
2023-03-02T09:51:58.264Z,8.55
2023-03-02T09:55:13.651Z,7.75
2023-03-02T09:58:19.992Z,7.55
2023-03-02T10:01:34.584Z,6.93
2023-03-02T10:04:44.314Z,7.65
2023-03-02T10:07:47.918Z,6.53
2023-03-02T10:11:23.563Z,7.18
2023-03-02T10:14:39.272Z,6.72
2023-03-02T10:18:10.920Z,6.95
2023-03-02T10:21:22.600Z,8.15
2023-03-02T10:24:39.922Z,6.78
2023-03-02T10:27:49.712Z,6.75
2023-03-02T10:31:09.479Z,7.43
2023-03-02T10:34:12.392Z,6.70
2023-03-02T10:37:18.751Z,7.32
2023-03-02T10:41:00.119Z,6.70
2023-03-02T10:44:08.721Z,7.60
2023-03-02T10:47:26.937Z,6.68
2023-03-02T10:50:30.766Z,7.20
2023-03-02T10:53:33.172Z,7.40
2023-03-02T10:56:36.252Z,7.10
2023-03-02T10:59:43.816Z,7.75
2023-03-02T11:02:56.939Z,7.53
2023-03-02T11:06:16.583Z,8.00
2023-03-02T11:09:19.365Z,7.80
2023-03-02T11:12:21.541Z,7.75
2023-03-02T11:15:40.329Z,7.32
2023-03-02T11:19:12.001Z,7.10
2023-03-02T11:22:32.691Z,7.28
2023-03-02T11:25:40.446Z,7.15
2023-03-02T11:28:49.069Z,6.85
2023-03-02T11:31:56.339Z,7.85
2023-03-02T11:35:13.828Z,7.87
2023-03-02T11:38:54.795Z,6.97
2023-03-02T11:41:58.573Z,8.23
2023-03-02T11:45:11.129Z,8.05
2023-03-02T11:48:29.804Z,9.00
2023-03-02T11:51:50.083Z,9.05
2023-03-02T11:55:03.317Z,9.10
2023-03-02T11:58:06.222Z,7.70
2023-03-02T12:01:17.765Z,8.38
2023-03-02T12:04:39.057Z,8.10
2023-03-02T12:07:41.622Z,7.90
2023-03-02T12:11:15.490Z,8.18
2023-03-02T12:14:47.120Z,7.82
2023-03-02T12:17:49.621Z,8.90
2023-03-02T12:21:10.390Z,9.43
2023-03-02T12:24:31.032Z,8.55
2023-03-02T12:27:39.727Z,8.63
2023-03-02T12:30:42.513Z,8.00
2023-03-02T12:33:50.874Z,7.90
2023-03-02T12:37:33.325Z,7.65
2023-03-02T12:41:17.502Z,7.20
2023-03-02T12:44:43.884Z,7.22
2023-03-02T12:47:51.432Z,8.20
2023-03-02T12:51:02.313Z,7.47
2023-03-02T12:54:06.745Z,6.68
2023-03-02T12:57:15.803Z,7.18
2023-03-02T13:00:21.073Z,7.50
2023-03-02T13:03:24.600Z,6.93
2023-03-02T13:06:30.610Z,6.65
2023-03-02T13:09:33.031Z,7.30
2023-03-02T13:12:36.663Z,7.62
2023-03-02T13:15:59.990Z,7.37
2023-03-02T13:19:11.375Z,8.05
2023-03-02T13:22:14.917Z,7.57
2023-03-02T13:25:29.167Z,7.10
2023-03-02T13:28:34.481Z,7.47
2023-03-02T13:31:36.808Z,7.53
2023-03-02T13:34:49.462Z,7.60
2023-03-02T13:38:02.314Z,7.97
2023-03-02T13:41:05.507Z,7.10
2023-03-02T13:44:19.936Z,7.40
2023-03-02T13:47:24.611Z,7.83
2023-03-02T13:50:29.922Z,8.02
2023-03-02T13:53:37.823Z,7.22
2023-03-02T13:56:41.210Z,7.95
2023-03-02T13:59:44.986Z,8.70
2023-03-02T14:02:48.641Z,7.40
2023-03-02T14:05:51.931Z,7.87
2023-03-02T14:08:54.076Z,8.05
2023-03-02T14:11:57.742Z,7.47
2023-03-02T14:15:03.525Z,7.65
2023-03-02T14:18:31.036Z,8.48
2023-03-02T14:21:33.526Z,7.85
2023-03-02T14:24:36.109Z,7.72
2023-03-02T14:27:38.940Z,7.12
2023-03-02T14:30:44.427Z,6.93
2023-03-02T14:33:46.580Z,7.15
2023-03-02T14:36:52.425Z,7.12
2023-03-02T14:39:55.729Z,7.78
2023-03-02T14:42:58.180Z,6.82
2023-03-02T14:46:00.305Z,7.43
2023-03-02T14:49:02.784Z,7.10
2023-03-02T14:52:07.552Z,7.35
2023-03-02T14:55:25.834Z,8.50
2023-03-02T14:58:33.767Z,7.05
2023-03-02T15:01:36.371Z,6.70
2023-03-02T15:04:38.579Z,6.75
2023-03-02T15:07:41.340Z,6.70
2023-03-02T15:10:43.562Z,6.93
2023-03-02T15:13:45.967Z,8.60
2023-03-02T15:16:48.066Z,7.25
2023-03-02T15:19:50.442Z,7.22
2023-03-02T15:22:52.841Z,6.97
2023-03-02T15:26:02.239Z,7.20
2023-03-02T15:29:04.943Z,6.93
2023-03-02T15:32:07.500Z,6.93
2023-03-02T15:35:12.432Z,6.93
2023-03-02T15:38:14.992Z,6.87
2023-03-02T15:41:17.446Z,7.68
2023-03-02T15:44:23.748Z,7.37
2023-03-02T15:47:25.992Z,7.47
2023-03-02T15:50:28.371Z,8.20
2023-03-02T15:53:32.818Z,8.25
2023-03-02T15:56:43.740Z,8.30
2023-03-02T15:59:46.799Z,7.80
2023-03-02T16:02:49.903Z,7.70
2023-03-02T16:05:52.612Z,7.85
2023-03-02T16:08:54.750Z,7.50
2023-03-02T16:11:57.676Z,7.47
2023-03-02T16:14:59.838Z,8.10
2023-03-02T16:18:02.194Z,7.20
2023-03-02T16:21:04.956Z,7.68
2023-03-02T16:24:07.865Z,6.72
2023-03-02T16:27:10.117Z,7.57
2023-03-02T16:30:13.280Z,7.75
2023-03-02T16:33:17.913Z,8.10
2023-03-02T16:36:21.616Z,8.02
2023-03-02T16:39:23.847Z,8.35
2023-03-02T16:42:28.417Z,7.87
2023-03-02T16:45:30.515Z,8.25
2023-03-02T16:48:32.875Z,7.53
2023-03-02T16:51:34.949Z,8.25
2023-03-02T16:54:37.307Z,44.38
